Decoded Metar for CYZE (GORE BAY in ON, CANADA) (IATA:YZE) | Meteo·Mobile Aviation Weather
aviador You're here:

CYZE Decoded Metar

GORE BAY in ON, CANADA
Report Time2018-08-19 05:00:00
UTC Time2018-08-19 05:27:12
Flight Rules vfr VFR
Wind130° at 04 kt
W.Decomp.*RWY 11: 3.5 kt HW 1.9 kt RCW
RWY 05: 0.1 kt HW 4.0 kt RCW
W.Rank130° ranks 36
Current wind is below 130° avg. (6.2)
Visibility9999 m
Phenomena:N/A
Clouds:N/A
Expected CloudBase > 400 ft AGL from Temp-Dew spread
CeilingNone
Temp15°C (ISA +1)
Dew Point14°C (94% RH)
AAT14.8°C
QNH1016 hPa
Density Alt896 ft
Elevation633 ft
Report Wrong Elevation
Raw Report
CYZE 190500Z AUTO 13004KT 9SM CLR 15/14 A3001 RMK SLP166=

Extra information for CYZE:More info

Metar Taf Metar & Taf Last 4 Metars F.Rules Stats Wind Profile Meteogram Temp Stats Airport Information Weather charts Add Link Nearby VenuesMetar ALERT Operation Metar Decoded Social comments